sensor_id;sensor_type;location;lat;lon;timestamp;temperature;humidity
30186;DHT22;31152;49.190;8.122;2023-05-07T00:00:43;15.40;99.90
30186;DHT22;31152;49.190;8.122;2023-05-07T00:03:09;15.40;99.90
30186;DHT22;31152;49.190;8.122;2023-05-07T00:05:37;15.40;99.90
30186;DHT22;31152;49.190;8.122;2023-05-07T00:08:04;15.30;99.90
30186;DHT22;31152;49.190;8.122;2023-05-07T00:10:31;15.30;99.90
30186;DHT22;31152;49.190;8.122;2023-05-07T00:12:58;15.20;99.90
30186;DHT22;31152;49.190;8.122;2023-05-07T00:15:27;15.20;99.90
30186;DHT22;31152;49.190;8.122;2023-05-07T00:17:54;15.20;99.90
30186;DHT22;31152;49.190;8.122;2023-05-07T00:20:21;15.20;99.90
30186;DHT22;31152;49.190;8.122;2023-05-07T00:22:48;15.10;99.90
30186;DHT22;31152;49.190;8.122;2023-05-07T00:25:18;15.10;99.90
30186;DHT22;31152;49.190;8.122;2023-05-07T00:27:46;15.00;99.90
30186;DHT22;31152;49.190;8.122;2023-05-07T00:30:12;15.00;99.90
30186;DHT22;31152;49.190;8.122;2023-05-07T00:32:41;15.00;99.90
30186;DHT22;31152;49.190;8.122;2023-05-07T00:35:08;15.00;99.90
30186;DHT22;31152;49.190;8.122;2023-05-07T00:37:36;14.90;99.90
30186;DHT22;31152;49.190;8.122;2023-05-07T00:40:06;15.00;99.90
30186;DHT22;31152;49.190;8.122;2023-05-07T00:42:34;14.90;99.90
30186;DHT22;31152;49.190;8.122;2023-05-07T00:45:04;14.90;99.90
30186;DHT22;31152;49.190;8.122;2023-05-07T00:47:31;14.80;99.90
30186;DHT22;31152;49.190;8.122;2023-05-07T00:49:58;14.80;99.90
30186;DHT22;31152;49.190;8.122;2023-05-07T00:52:26;14.80;99.90
30186;DHT22;31152;49.190;8.122;2023-05-07T00:54:53;14.70;99.90
30186;DHT22;31152;49.190;8.122;2023-05-07T00:57:23;14.70;99.90
30186;DHT22;31152;49.190;8.122;2023-05-07T00:59:51;14.70;99.90
30186;DHT22;31152;49.190;8.122;2023-05-07T01:02:20;14.60;99.90
30186;DHT22;31152;49.190;8.122;2023-05-07T01:04:49;14.70;99.90
30186;DHT22;31152;49.190;8.122;2023-05-07T01:07:16;14.60;99.90
30186;DHT22;31152;49.190;8.122;2023-05-07T01:09:43;14.60;99.90
30186;DHT22;31152;49.190;8.122;2023-05-07T01:12:13;14.50;99.90
30186;DHT22;31152;49.190;8.122;2023-05-07T01:14:39;14.60;99.90
30186;DHT22;31152;49.190;8.122;2023-05-07T01:17:06;14.50;99.90
30186;DHT22;31152;49.190;8.122;2023-05-07T01:19:36;14.40;99.90
30186;DHT22;31152;49.190;8.122;2023-05-07T01:22:09;14.40;99.90
30186;DHT22;31152;49.190;8.122;2023-05-07T01:24:41;14.40;99.90
30186;DHT22;31152;49.190;8.122;2023-05-07T01:27:11;14.40;99.90
30186;DHT22;31152;49.190;8.122;2023-05-07T01:29:37;14.40;99.90
30186;DHT22;31152;49.190;8.122;2023-05-07T01:32:05;14.40;99.90
30186;DHT22;31152;49.190;8.122;2023-05-07T01:34:34;14.30;99.90
30186;DHT22;31152;49.190;8.122;2023-05-07T01:37:02;14.30;99.90
30186;DHT22;31152;49.190;8.122;2023-05-07T01:39:30;14.30;99.90
30186;DHT22;31152;49.190;8.122;2023-05-07T01:41:58;14.30;99.90
30186;DHT22;31152;49.190;8.122;2023-05-07T01:44:28;14.20;99.90
30186;DHT22;31152;49.190;8.122;2023-05-07T01:46:56;14.20;99.90
30186;DHT22;31152;49.190;8.122;2023-05-07T01:49:25;14.20;99.90
30186;DHT22;31152;49.190;8.122;2023-05-07T01:51:52;14.20;99.90
30186;DHT22;31152;49.190;8.122;2023-05-07T01:54:27;14.20;99.90
30186;DHT22;31152;49.190;8.122;2023-05-07T01:56:56;14.10;99.90
30186;DHT22;31152;49.190;8.122;2023-05-07T01:59:23;14.00;99.90
30186;DHT22;31152;49.190;8.122;2023-05-07T02:01:50;13.90;99.90
30186;DHT22;31152;49.190;8.122;2023-05-07T02:04:17;13.90;99.90
30186;DHT22;31152;49.190;8.122;2023-05-07T02:06:44;13.90;99.90
30186;DHT22;31152;49.190;8.122;2023-05-07T02:09:11;13.80;99.90
30186;DHT22;31152;49.190;8.122;2023-05-07T02:11:37;13.90;99.90
30186;DHT22;31152;49.190;8.122;2023-05-07T02:14:04;13.90;99.90
30186;DHT22;31152;49.190;8.122;2023-05-07T02:16:31;13.90;99.90
30186;DHT22;31152;49.190;8.122;2023-05-07T02:18:58;13.90;99.90
30186;DHT22;31152;49.190;8.122;2023-05-07T02:21:25;13.90;99.90
30186;DHT22;31152;49.190;8.122;2023-05-07T02:23:52;13.80;99.90
30186;DHT22;31152;49.190;8.122;2023-05-07T02:26:18;13.80;99.90
30186;DHT22;31152;49.190;8.122;2023-05-07T02:28:45;13.70;99.90
30186;DHT22;31152;49.190;8.122;2023-05-07T02:31:12;13.70;99.90
30186;DHT22;31152;49.190;8.122;2023-05-07T02:33:38;13.70;99.90
30186;DHT22;31152;49.190;8.122;2023-05-07T02:36:09;13.70;99.90
30186;DHT22;31152;49.190;8.122;2023-05-07T02:38:38;13.60;99.90
30186;DHT22;31152;49.190;8.122;2023-05-07T02:41:05;13.60;99.90
30186;DHT22;31152;49.190;8.122;2023-05-07T02:43:32;13.60;99.90
30186;DHT22;31152;49.190;8.122;2023-05-07T02:46:06;13.50;99.90
30186;DHT22;31152;49.190;8.122;2023-05-07T02:48:34;13.50;99.90
30186;DHT22;31152;49.190;8.122;2023-05-07T02:51:02;13.50;99.90
30186;DHT22;31152;49.190;8.122;2023-05-07T02:53:29;13.40;99.90
30186;DHT22;31152;49.190;8.122;2023-05-07T02:55:58;13.40;99.90
30186;DHT22;31152;49.190;8.122;2023-05-07T02:58:25;13.50;99.90
30186;DHT22;31152;49.190;8.122;2023-05-07T03:00:52;13.40;99.90
30186;DHT22;31152;49.190;8.122;2023-05-07T03:03:19;13.30;99.90
30186;DHT22;31152;49.190;8.122;2023-05-07T03:05:46;13.30;99.90
30186;DHT22;31152;49.190;8.122;2023-05-07T03:08:12;13.30;99.90
30186;DHT22;31152;49.190;8.122;2023-05-07T03:10:39;13.40;99.90
30186;DHT22;31152;49.190;8.122;2023-05-07T03:13:06;13.30;99.90
30186;DHT22;31152;49.190;8.122;2023-05-07T03:15:33;13.30;99.90
30186;DHT22;31152;49.190;8.122;2023-05-07T03:18:00;13.30;99.90
30186;DHT22;31152;49.190;8.122;2023-05-07T03:20:27;13.30;99.90
30186;DHT22;31152;49.190;8.122;2023-05-07T03:22:53;13.30;99.90
30186;DHT22;31152;49.190;8.122;2023-05-07T03:25:20;13.30;99.90
30186;DHT22;31152;49.190;8.122;2023-05-07T03:27:47;13.20;99.90
30186;DHT22;31152;49.190;8.122;2023-05-07T03:30:14;13.20;99.90
30186;DHT22;31152;49.190;8.122;2023-05-07T03:32:41;13.20;99.90
30186;DHT22;31152;49.190;8.122;2023-05-07T03:35:10;13.20;99.90
30186;DHT22;31152;49.190;8.122;2023-05-07T03:37:37;13.20;99.90
30186;DHT22;31152;49.190;8.122;2023-05-07T03:40:07;13.20;99.90
30186;DHT22;31152;49.190;8.122;2023-05-07T03:42:37;13.20;99.90
30186;DHT22;31152;49.190;8.122;2023-05-07T03:45:04;13.20;99.90
30186;DHT22;31152;49.190;8.122;2023-05-07T03:47:31;13.20;99.90
30186;DHT22;31152;49.190;8.122;2023-05-07T03:49:58;13.20;99.90
30186;DHT22;31152;49.190;8.122;2023-05-07T03:52:25;13.20;99.90
30186;DHT22;31152;49.190;8.122;2023-05-07T03:54:53;13.20;99.90
30186;DHT22;31152;49.190;8.122;2023-05-07T03:57:22;13.20;99.90
30186;DHT22;31152;49.190;8.122;2023-05-07T03:59:48;13.10;99.90
30186;DHT22;31152;49.190;8.122;2023-05-07T04:02:15;13.10;99.90
30186;DHT22;31152;49.190;8.122;2023-05-07T04:04:42;13.10;99.90
30186;DHT22;31152;49.190;8.122;2023-05-07T04:07:09;13.10;99.90
30186;DHT22;31152;49.190;8.122;2023-05-07T04:09:36;13.10;99.90
30186;DHT22;31152;49.190;8.122;2023-05-07T04:12:03;13.10;99.90
30186;DHT22;31152;49.190;8.122;2023-05-07T04:14:32;13.10;99.90
30186;DHT22;31152;49.190;8.122;2023-05-07T04:16:59;13.10;99.90
30186;DHT22;31152;49.190;8.122;2023-05-07T04:19:26;13.10;99.90
30186;DHT22;31152;49.190;8.122;2023-05-07T04:21:53;13.10;99.90
30186;DHT22;31152;49.190;8.122;2023-05-07T04:24:19;13.20;99.90
30186;DHT22;31152;49.190;8.122;2023-05-07T04:26:46;13.20;99.90
30186;DHT22;31152;49.190;8.122;2023-05-07T04:29:17;13.30;99.90
30186;DHT22;31152;49.190;8.122;2023-05-07T04:31:47;13.30;99.90
30186;DHT22;31152;49.190;8.122;2023-05-07T04:34:14;13.40;99.90
30186;DHT22;31152;49.190;8.122;2023-05-07T04:36:42;13.40;99.90
30186;DHT22;31152;49.190;8.122;2023-05-07T04:39:08;13.50;99.90
30186;DHT22;31152;49.190;8.122;2023-05-07T04:41:36;13.60;99.90
30186;DHT22;31152;49.190;8.122;2023-05-07T04:44:03;13.60;99.90
30186;DHT22;31152;49.190;8.122;2023-05-07T04:46:30;13.70;99.90
30186;DHT22;31152;49.190;8.122;2023-05-07T04:48:57;13.70;99.90
30186;DHT22;31152;49.190;8.122;2023-05-07T04:51:24;13.80;99.90
30186;DHT22;31152;49.190;8.122;2023-05-07T04:53:53;13.80;99.90
30186;DHT22;31152;49.190;8.122;2023-05-07T04:56:20;13.90;99.90
30186;DHT22;31152;49.190;8.122;2023-05-07T04:58:47;13.90;99.90
30186;DHT22;31152;49.190;8.122;2023-05-07T05:01:13;14.00;99.90
30186;DHT22;31152;49.190;8.122;2023-05-07T05:03:40;14.10;99.90
30186;DHT22;31152;49.190;8.122;2023-05-07T05:06:11;14.10;99.90
30186;DHT22;31152;49.190;8.122;2023-05-07T05:08:40;14.20;99.90
30186;DHT22;31152;49.190;8.122;2023-05-07T05:11:07;14.20;99.90
30186;DHT22;31152;49.190;8.122;2023-05-07T05:13:34;14.30;99.90
30186;DHT22;31152;49.190;8.122;2023-05-07T05:16:00;14.30;99.90
30186;DHT22;31152;49.190;8.122;2023-05-07T05:18:27;14.40;99.90
30186;DHT22;31152;49.190;8.122;2023-05-07T05:20:54;14.50;99.90
30186;DHT22;31152;49.190;8.122;2023-05-07T05:23:20;14.50;99.90
30186;DHT22;31152;49.190;8.122;2023-05-07T05:25:49;14.60;99.90
30186;DHT22;31152;49.190;8.122;2023-05-07T05:28:16;14.70;99.90
30186;DHT22;31152;49.190;8.122;2023-05-07T05:30:43;14.80;99.90
30186;DHT22;31152;49.190;8.122;2023-05-07T05:33:09;14.80;99.90
30186;DHT22;31152;49.190;8.122;2023-05-07T05:35:36;14.90;99.90
30186;DHT22;31152;49.190;8.122;2023-05-07T05:38:03;15.00;99.90
30186;DHT22;31152;49.190;8.122;2023-05-07T05:40:30;15.10;99.90
30186;DHT22;31152;49.190;8.122;2023-05-07T05:42:56;15.20;99.90
30186;DHT22;31152;49.190;8.122;2023-05-07T05:45:23;15.30;99.90
30186;DHT22;31152;49.190;8.122;2023-05-07T05:47:50;15.40;99.90
30186;DHT22;31152;49.190;8.122;2023-05-07T05:50:17;15.40;99.90
30186;DHT22;31152;49.190;8.122;2023-05-07T05:52:43;15.50;99.90
30186;DHT22;31152;49.190;8.122;2023-05-07T05:55:13;15.60;99.90
30186;DHT22;31152;49.190;8.122;2023-05-07T05:57:39;15.70;99.90
30186;DHT22;31152;49.190;8.122;2023-05-07T06:00:07;15.70;99.90
30186;DHT22;31152;49.190;8.122;2023-05-07T06:02:35;15.80;99.90
30186;DHT22;31152;49.190;8.122;2023-05-07T06:05:02;15.90;99.90
30186;DHT22;31152;49.190;8.122;2023-05-07T06:07:28;16.00;99.90
30186;DHT22;31152;49.190;8.122;2023-05-07T06:09:55;16.10;99.90
30186;DHT22;31152;49.190;8.122;2023-05-07T06:12:22;16.10;99.90
30186;DHT22;31152;49.190;8.122;2023-05-07T06:14:48;16.30;99.90
30186;DHT22;31152;49.190;8.122;2023-05-07T06:17:17;16.30;99.90
30186;DHT22;31152;49.190;8.122;2023-05-07T06:19:47;16.40;99.90
30186;DHT22;31152;49.190;8.122;2023-05-07T06:22:14;16.50;99.90
30186;DHT22;31152;49.190;8.122;2023-05-07T06:24:40;16.60;99.90
30186;DHT22;31152;49.190;8.122;2023-05-07T06:27:07;16.70;99.90
30186;DHT22;31152;49.190;8.122;2023-05-07T06:29:34;16.80;99.90
30186;DHT22;31152;49.190;8.122;2023-05-07T06:32:11;16.90;99.90
30186;DHT22;31152;49.190;8.122;2023-05-07T06:34:39;17.00;99.90
30186;DHT22;31152;49.190;8.122;2023-05-07T06:37:06;17.10;99.90
30186;DHT22;31152;49.190;8.122;2023-05-07T06:39:33;17.20;99.90
30186;DHT22;31152;49.190;8.122;2023-05-07T06:42:00;17.20;99.90
30186;DHT22;31152;49.190;8.122;2023-05-07T06:44:31;17.30;99.90
30186;DHT22;31152;49.190;8.122;2023-05-07T06:47:03;17.40;99.90
30186;DHT22;31152;49.190;8.122;2023-05-07T06:49:29;17.50;99.90
30186;DHT22;31152;49.190;8.122;2023-05-07T06:52:01;17.60;99.90
30186;DHT22;31152;49.190;8.122;2023-05-07T06:54:31;17.70;99.90
30186;DHT22;31152;49.190;8.122;2023-05-07T06:57:00;17.80;99.90
30186;DHT22;31152;49.190;8.122;2023-05-07T06:59:27;17.90;99.90
30186;DHT22;31152;49.190;8.122;2023-05-07T07:01:54;18.00;99.90
30186;DHT22;31152;49.190;8.122;2023-05-07T07:04:21;18.10;99.90
30186;DHT22;31152;49.190;8.122;2023-05-07T07:06:52;18.10;99.90
30186;DHT22;31152;49.190;8.122;2023-05-07T07:09:18;18.30;99.90
30186;DHT22;31152;49.190;8.122;2023-05-07T07:11:50;18.40;99.90
30186;DHT22;31152;49.190;8.122;2023-05-07T07:14:17;18.50;99.90
30186;DHT22;31152;49.190;8.122;2023-05-07T07:16:44;18.60;99.90
30186;DHT22;31152;49.190;8.122;2023-05-07T07:19:10;18.80;99.90
30186;DHT22;31152;49.190;8.122;2023-05-07T07:21:37;18.90;99.90
30186;DHT22;31152;49.190;8.122;2023-05-07T07:24:04;19.00;99.90
30186;DHT22;31152;49.190;8.122;2023-05-07T07:26:31;19.10;99.90
30186;DHT22;31152;49.190;8.122;2023-05-07T07:28:58;19.20;99.90
30186;DHT22;31152;49.190;8.122;2023-05-07T07:31:24;19.20;99.90
30186;DHT22;31152;49.190;8.122;2023-05-07T07:33:51;19.40;99.90
30186;DHT22;31152;49.190;8.122;2023-05-07T07:36:18;19.50;99.90
30186;DHT22;31152;49.190;8.122;2023-05-07T07:38:47;19.70;99.90
30186;DHT22;31152;49.190;8.122;2023-05-07T07:41:14;19.80;99.90
30186;DHT22;31152;49.190;8.122;2023-05-07T07:43:41;19.80;99.90
30186;DHT22;31152;49.190;8.122;2023-05-07T07:46:08;19.90;99.90
30186;DHT22;31152;49.190;8.122;2023-05-07T07:48:35;19.80;99.90
30186;DHT22;31152;49.190;8.122;2023-05-07T07:51:02;19.70;99.90
30186;DHT22;31152;49.190;8.122;2023-05-07T07:53:38;19.60;99.90
30186;DHT22;31152;49.190;8.122;2023-05-07T07:56:05;19.70;99.90
30186;DHT22;31152;49.190;8.122;2023-05-07T07:58:35;19.90;99.90
30186;DHT22;31152;49.190;8.122;2023-05-07T08:01:03;20.20;99.90
30186;DHT22;31152;49.190;8.122;2023-05-07T08:03:30;20.50;99.90
30186;DHT22;31152;49.190;8.122;2023-05-07T08:05:59;20.80;99.90
30186;DHT22;31152;49.190;8.122;2023-05-07T08:08:26;21.00;99.90
30186;DHT22;31152;49.190;8.122;2023-05-07T08:10:53;21.20;99.90
30186;DHT22;31152;49.190;8.122;2023-05-07T08:13:20;21.40;99.90
30186;DHT22;31152;49.190;8.122;2023-05-07T08:15:51;21.60;99.90
30186;DHT22;31152;49.190;8.122;2023-05-07T08:18:19;21.50;99.90
30186;DHT22;31152;49.190;8.122;2023-05-07T08:20:47;21.50;99.90
30186;DHT22;31152;49.190;8.122;2023-05-07T08:23:17;21.60;99.90
30186;DHT22;31152;49.190;8.122;2023-05-07T08:25:43;21.70;99.90
30186;DHT22;31152;49.190;8.122;2023-05-07T08:28:10;21.90;99.90
30186;DHT22;31152;49.190;8.122;2023-05-07T08:30:45;22.00;99.90
30186;DHT22;31152;49.190;8.122;2023-05-07T08:33:12;22.20;99.90
30186;DHT22;31152;49.190;8.122;2023-05-07T08:35:45;22.40;99.90
30186;DHT22;31152;49.190;8.122;2023-05-07T08:38:14;22.60;99.90
30186;DHT22;31152;49.190;8.122;2023-05-07T08:40:43;22.60;99.10
30186;DHT22;31152;49.190;8.122;2023-05-07T08:43:12;22.50;99.80
30186;DHT22;31152;49.190;8.122;2023-05-07T08:45:40;22.60;99.50
30186;DHT22;31152;49.190;8.122;2023-05-07T08:48:15;22.80;99.30
30186;DHT22;31152;49.190;8.122;2023-05-07T08:50:42;22.90;99.10
30186;DHT22;31152;49.190;8.122;2023-05-07T08:53:09;22.90;98.40
30186;DHT22;31152;49.190;8.122;2023-05-07T08:55:36;22.80;98.30
30186;DHT22;31152;49.190;8.122;2023-05-07T08:58:03;22.60;98.60
30186;DHT22;31152;49.190;8.122;2023-05-07T09:00:30;22.40;98.90
30186;DHT22;31152;49.190;8.122;2023-05-07T09:03:00;22.40;99.20
30186;DHT22;31152;49.190;8.122;2023-05-07T09:05:29;22.60;99.60
30186;DHT22;31152;49.190;8.122;2023-05-07T09:07:59;22.60;99.60
30186;DHT22;31152;49.190;8.122;2023-05-07T09:10:26;22.70;99.00
30186;DHT22;31152;49.190;8.122;2023-05-07T09:12:53;22.80;99.20
30186;DHT22;31152;49.190;8.122;2023-05-07T09:15:20;22.90;98.90
30186;DHT22;31152;49.190;8.122;2023-05-07T09:17:49;23.00;99.10
30186;DHT22;31152;49.190;8.122;2023-05-07T09:20:16;23.10;98.90
30186;DHT22;31152;49.190;8.122;2023-05-07T09:22:43;23.30;98.40
30186;DHT22;31152;49.190;8.122;2023-05-07T09:25:12;23.30;97.80
30186;DHT22;31152;49.190;8.122;2023-05-07T09:27:42;23.50;98.20
30186;DHT22;31152;49.190;8.122;2023-05-07T09:30:09;23.70;97.60
30186;DHT22;31152;49.190;8.122;2023-05-07T09:32:36;23.70;97.10
30186;DHT22;31152;49.190;8.122;2023-05-07T09:35:14;23.80;97.60
30186;DHT22;31152;49.190;8.122;2023-05-07T09:37:41;23.70;97.10
30186;DHT22;31152;49.190;8.122;2023-05-07T09:40:09;23.80;97.60
30186;DHT22;31152;49.190;8.122;2023-05-07T09:42:46;23.90;96.90
30186;DHT22;31152;49.190;8.122;2023-05-07T09:45:13;24.00;96.80
30186;DHT22;31152;49.190;8.122;2023-05-07T09:47:42;24.00;96.40
30186;DHT22;31152;49.190;8.122;2023-05-07T09:50:13;24.10;97.10
30186;DHT22;31152;49.190;8.122;2023-05-07T09:52:42;24.10;96.90
30186;DHT22;31152;49.190;8.122;2023-05-07T09:55:10;24.30;97.10
30186;DHT22;31152;49.190;8.122;2023-05-07T09:57:40;24.50;96.40
30186;DHT22;31152;49.190;8.122;2023-05-07T10:00:08;24.70;96.40
30186;DHT22;31152;49.190;8.122;2023-05-07T10:02:37;24.90;95.80
30186;DHT22;31152;49.190;8.122;2023-05-07T10:05:15;25.10;95.40
30186;DHT22;31152;49.190;8.122;2023-05-07T10:07:45;25.30;94.50
30186;DHT22;31152;49.190;8.122;2023-05-07T10:10:12;25.40;94.50
30186;DHT22;31152;49.190;8.122;2023-05-07T10:12:40;25.60;94.30
30186;DHT22;31152;49.190;8.122;2023-05-07T10:15:10;25.70;94.00
30186;DHT22;31152;49.190;8.122;2023-05-07T10:17:39;25.70;94.00
30186;DHT22;31152;49.190;8.122;2023-05-07T10:20:07;25.70;93.70
30186;DHT22;31152;49.190;8.122;2023-05-07T10:22:45;25.80;93.80
30186;DHT22;31152;49.190;8.122;2023-05-07T10:25:26;25.90;93.70
30186;DHT22;31152;49.190;8.122;2023-05-07T10:27:59;26.10;92.80
30186;DHT22;31152;49.190;8.122;2023-05-07T10:33:29;26.60;92.80
30186;DHT22;31152;49.190;8.122;2023-05-07T10:36:00;26.80;91.70
30186;DHT22;31152;49.190;8.122;2023-05-07T10:38:31;26.70;91.20
30186;DHT22;31152;49.190;8.122;2023-05-07T10:40:58;26.60;91.40
30186;DHT22;31152;49.190;8.122;2023-05-07T10:43:39;26.50;91.30
30186;DHT22;31152;49.190;8.122;2023-05-07T10:46:20;26.30;90.90
30186;DHT22;31152;49.190;8.122;2023-05-07T10:49:06;26.30;91.40
30186;DHT22;31152;49.190;8.122;2023-05-07T10:51:37;26.40;91.70
30186;DHT22;31152;49.190;8.122;2023-05-07T10:56:43;26.90;91.70
30186;DHT22;31152;49.190;8.122;2023-05-07T10:59:31;27.20;90.80
30186;DHT22;31152;49.190;8.122;2023-05-07T11:02:03;27.50;90.00
30186;DHT22;31152;49.190;8.122;2023-05-07T11:04:33;27.70;88.30
30186;DHT22;31152;49.190;8.122;2023-05-07T11:09:55;27.40;88.60
30186;DHT22;31152;49.190;8.122;2023-05-07T11:15:11;27.80;86.80
30186;DHT22;31152;49.190;8.122;2023-05-07T11:17:58;28.00;86.40
30186;DHT22;31152;49.190;8.122;2023-05-07T11:26:06;26.50;89.00
30186;DHT22;31152;49.190;8.122;2023-05-07T11:28:37;26.60;88.20
30186;DHT22;31152;49.190;8.122;2023-05-07T11:31:05;26.20;90.30
30186;DHT22;31152;49.190;8.122;2023-05-07T11:33:35;26.50;89.20
30186;DHT22;31152;49.190;8.122;2023-05-07T11:36:03;26.80;88.30
30186;DHT22;31152;49.190;8.122;2023-05-07T11:38:34;26.90;87.00
30186;DHT22;31152;49.190;8.122;2023-05-07T11:41:01;27.10;88.10
30186;DHT22;31152;49.190;8.122;2023-05-07T11:43:34;27.30;87.90
30186;DHT22;31152;49.190;8.122;2023-05-07T11:46:10;27.50;88.30
30186;DHT22;31152;49.190;8.122;2023-05-07T11:48:38;27.70;87.10
30186;DHT22;31152;49.190;8.122;2023-05-07T11:51:06;27.90;83.70
30186;DHT22;31152;49.190;8.122;2023-05-07T11:53:40;27.90;83.60
30186;DHT22;31152;49.190;8.122;2023-05-07T11:56:11;27.80;83.70
30186;DHT22;31152;49.190;8.122;2023-05-07T11:58:39;27.70;83.40
30186;DHT22;31152;49.190;8.122;2023-05-07T12:01:11;27.10;82.50
30186;DHT22;31152;49.190;8.122;2023-05-07T12:03:40;26.70;84.60
30186;DHT22;31152;49.190;8.122;2023-05-07T12:06:10;26.60;85.50
30186;DHT22;31152;49.190;8.122;2023-05-07T12:08:41;26.20;87.90
30186;DHT22;31152;49.190;8.122;2023-05-07T12:11:14;25.70;88.50
30186;DHT22;31152;49.190;8.122;2023-05-07T12:13:42;25.50;88.00
30186;DHT22;31152;49.190;8.122;2023-05-07T12:16:09;25.40;90.80
30186;DHT22;31152;49.190;8.122;2023-05-07T12:18:40;25.30;91.50
30186;DHT22;31152;49.190;8.122;2023-05-07T12:21:07;25.30;90.70
30186;DHT22;31152;49.190;8.122;2023-05-07T12:23:38;25.10;90.40
30186;DHT22;31152;49.190;8.122;2023-05-07T12:26:05;25.00;90.00
30186;DHT22;31152;49.190;8.122;2023-05-07T12:28:37;24.90;90.10
30186;DHT22;31152;49.190;8.122;2023-05-07T12:31:05;24.60;91.10
30186;DHT22;31152;49.190;8.122;2023-05-07T12:33:35;24.60;90.60
30186;DHT22;31152;49.190;8.122;2023-05-07T12:36:05;24.60;91.10
30186;DHT22;31152;49.190;8.122;2023-05-07T12:38:37;24.60;90.90
30186;DHT22;31152;49.190;8.122;2023-05-07T12:41:05;24.60;90.80
30186;DHT22;31152;49.190;8.122;2023-05-07T12:43:33;24.80;90.80
30186;DHT22;31152;49.190;8.122;2023-05-07T12:46:04;25.00;90.70
30186;DHT22;31152;49.190;8.122;2023-05-07T12:48:31;25.20;90.70
30186;DHT22;31152;49.190;8.122;2023-05-07T12:51:00;25.30;89.50
30186;DHT22;31152;49.190;8.122;2023-05-07T12:53:28;25.50;90.20
30186;DHT22;31152;49.190;8.122;2023-05-07T12:55:56;25.50;89.60
30186;DHT22;31152;49.190;8.122;2023-05-07T12:58:32;25.90;86.70
30186;DHT22;31152;49.190;8.122;2023-05-07T13:01:07;26.10;87.30
30186;DHT22;31152;49.190;8.122;2023-05-07T13:03:37;26.30;88.00
30186;DHT22;31152;49.190;8.122;2023-05-07T13:06:09;26.80;86.10
30186;DHT22;31152;49.190;8.122;2023-05-07T13:08:38;26.80;88.00
30186;DHT22;31152;49.190;8.122;2023-05-07T13:11:08;26.40;87.30
30186;DHT22;31152;49.190;8.122;2023-05-07T13:13:35;26.50;86.50
30186;DHT22;31152;49.190;8.122;2023-05-07T13:16:03;26.50;85.80
30186;DHT22;31152;49.190;8.122;2023-05-07T13:18:31;26.30;85.30
30186;DHT22;31152;49.190;8.122;2023-05-07T13:21:01;26.30;86.50
30186;DHT22;31152;49.190;8.122;2023-05-07T13:23:28;26.10;86.40
30186;DHT22;31152;49.190;8.122;2023-05-07T13:25:55;25.80;86.60
30186;DHT22;31152;49.190;8.122;2023-05-07T13:28:25;25.50;88.30
30186;DHT22;31152;49.190;8.122;2023-05-07T13:30:53;25.30;88.90
30186;DHT22;31152;49.190;8.122;2023-05-07T13:33:20;25.20;90.40
30186;DHT22;31152;49.190;8.122;2023-05-07T13:35:47;25.10;90.30
30186;DHT22;31152;49.190;8.122;2023-05-07T13:38:14;24.80;89.10
30186;DHT22;31152;49.190;8.122;2023-05-07T13:40:45;24.70;87.70
30186;DHT22;31152;49.190;8.122;2023-05-07T13:43:11;24.60;87.80
30186;DHT22;31152;49.190;8.122;2023-05-07T13:45:38;24.60;90.20
30186;DHT22;31152;49.190;8.122;2023-05-07T13:48:05;24.60;89.00
30186;DHT22;31152;49.190;8.122;2023-05-07T13:50:32;24.80;90.40
30186;DHT22;31152;49.190;8.122;2023-05-07T13:53:00;24.70;90.70
30186;DHT22;31152;49.190;8.122;2023-05-07T13:55:28;24.60;91.30
30186;DHT22;31152;49.190;8.122;2023-05-07T13:58:00;24.30;91.30
30186;DHT22;31152;49.190;8.122;2023-05-07T14:00:35;24.20;92.60
30186;DHT22;31152;49.190;8.122;2023-05-07T14:03:05;24.20;91.10
30186;DHT22;31152;49.190;8.122;2023-05-07T14:05:32;24.00;90.00
30186;DHT22;31152;49.190;8.122;2023-05-07T14:07:59;23.90;90.10
30186;DHT22;31152;49.190;8.122;2023-05-07T14:10:25;23.90;90.40
30186;DHT22;31152;49.190;8.122;2023-05-07T14:12:54;23.90;90.40
30186;DHT22;31152;49.190;8.122;2023-05-07T14:15:21;23.60;91.70
30186;DHT22;31152;49.190;8.122;2023-05-07T14:17:51;23.10;92.90
30186;DHT22;31152;49.190;8.122;2023-05-07T14:20:20;22.70;93.30
30186;DHT22;31152;49.190;8.122;2023-05-07T14:22:47;22.40;94.00
30186;DHT22;31152;49.190;8.122;2023-05-07T14:25:16;22.20;94.50
30186;DHT22;31152;49.190;8.122;2023-05-07T14:27:43;22.20;94.90
30186;DHT22;31152;49.190;8.122;2023-05-07T14:30:10;22.00;95.30
30186;DHT22;31152;49.190;8.122;2023-05-07T14:32:37;21.90;95.80
30186;DHT22;31152;49.190;8.122;2023-05-07T14:35:04;21.70;96.30
30186;DHT22;31152;49.190;8.122;2023-05-07T14:37:31;21.60;96.80
30186;DHT22;31152;49.190;8.122;2023-05-07T14:39:58;21.70;97.30
30186;DHT22;31152;49.190;8.122;2023-05-07T14:42:24;21.70;97.90
30186;DHT22;31152;49.190;8.122;2023-05-07T14:44:51;21.60;98.10
30186;DHT22;31152;49.190;8.122;2023-05-07T14:47:22;21.40;98.50
30186;DHT22;31152;49.190;8.122;2023-05-07T14:49:48;21.50;98.30
30186;DHT22;31152;49.190;8.122;2023-05-07T14:52:17;21.30;98.60
30186;DHT22;31152;49.190;8.122;2023-05-07T14:54:46;21.30;99.00
30186;DHT22;31152;49.190;8.122;2023-05-07T14:57:14;21.40;99.00
30186;DHT22;31152;49.190;8.122;2023-05-07T14:59:45;21.50;99.00
30186;DHT22;31152;49.190;8.122;2023-05-07T15:02:13;21.70;98.90
30186;DHT22;31152;49.190;8.122;2023-05-07T15:04:40;21.80;98.90
30186;DHT22;31152;49.190;8.122;2023-05-07T15:07:14;21.70;99.30
30186;DHT22;31152;49.190;8.122;2023-05-07T15:09:44;21.80;99.70
30186;DHT22;31152;49.190;8.122;2023-05-07T15:12:11;21.90;99.70
30186;DHT22;31152;49.190;8.122;2023-05-07T15:14:38;22.00;97.00
30186;DHT22;31152;49.190;8.122;2023-05-07T15:17:05;22.10;95.50
30186;DHT22;31152;49.190;8.122;2023-05-07T15:19:32;22.10;94.70
30186;DHT22;31152;49.190;8.122;2023-05-07T15:22:00;22.20;93.50
30186;DHT22;31152;49.190;8.122;2023-05-07T15:24:30;22.20;93.10
30186;DHT22;31152;49.190;8.122;2023-05-07T15:26:59;22.10;93.00
30186;DHT22;31152;49.190;8.122;2023-05-07T15:29:27;22.10;93.00
30186;DHT22;31152;49.190;8.122;2023-05-07T15:31:56;22.00;92.80
30186;DHT22;31152;49.190;8.122;2023-05-07T15:34:26;22.00;92.70
30186;DHT22;31152;49.190;8.122;2023-05-07T15:36:52;21.90;92.70
30186;DHT22;31152;49.190;8.122;2023-05-07T15:39:19;21.80;92.90
30186;DHT22;31152;49.190;8.122;2023-05-07T15:41:49;21.70;93.30
30186;DHT22;31152;49.190;8.122;2023-05-07T15:44:15;21.50;93.90
30186;DHT22;31152;49.190;8.122;2023-05-07T15:46:42;21.40;94.80
30186;DHT22;31152;49.190;8.122;2023-05-07T15:49:09;21.20;95.40
30186;DHT22;31152;49.190;8.122;2023-05-07T15:51:36;21.10;95.90
30186;DHT22;31152;49.190;8.122;2023-05-07T15:54:03;20.90;96.30